AXB1980 VIDP-VISR
Flight info
| Callsign | AXB1980 |
|---|---|
| Flight time | 0h 59m |
| Altitude | 36000 |
| Route | SP W35 ONOGI M890 CHG/N0399F290 J79 KNG/N0443F380 DCT ATNUS W24 MESAR W22 SGR |
| Aircraft | B38M/M-SDE1FGHILORVWXY/HB1 |
Departure
| Time | 2026-04-16 03:01 |
|---|---|
| Airport | Indira Gandhi International Airport (VIDP) |
Arrival
| Time | 2026-04-16 04:00 |
|---|---|
| Airport | Sheikh ul Alam International Airport (VISR) |
| Time | Latitude | Longitude | Altitude | Speed | Heading |
|---|---|---|---|---|---|
| 2026-04-16 02:39 | 28.55194 | 77.08163 | 776 ft | 0 kts | 149° |
| 2026-04-16 02:50 | 28.55196 | 77.08162 | 776 ft | 2 kts | 149° |
| 2026-04-16 02:50 | 28.55210 | 77.08153 | 776 ft | 2 kts | 153° |
| 2026-04-16 02:50 | 28.55225 | 77.08145 | 776 ft | 2 kts | 157° |
| 2026-04-16 02:51 | 28.55240 | 77.08139 | 776 ft | 2 kts | 162° |
| 2026-04-16 02:51 | 28.55257 | 77.08134 | 776 ft | 2 kts | 172° |
| 2026-04-16 02:51 | 28.55273 | 77.08134 | 776 ft | 2 kts | 188° |
| 2026-04-16 02:51 | 28.55289 | 77.08139 | 776 ft | 2 kts | 210° |
| 2026-04-16 02:52 | 28.55301 | 77.08151 | 776 ft | 2 kts | 232° |
| 2026-04-16 02:52 | 28.55306 | 77.08160 | 776 ft | 1 kts | 239° |
| 2026-04-16 02:52 | 28.55307 | 77.08160 | 776 ft | 0 kts | 239° |
| 2026-04-16 02:54 | 28.55292 | 77.08132 | 776 ft | 10 kts | 239° |
| 2026-04-16 02:54 | 28.55236 | 77.08026 | 776 ft | 21 kts | 239° |
| 2026-04-16 02:54 | 28.55206 | 77.07969 | 776 ft | 8 kts | 239° |
| 2026-04-16 02:54 | 28.55205 | 77.07967 | 776 ft | 8 kts | 239° |
| 2026-04-16 02:55 | 28.55193 | 77.07948 | 776 ft | 3 kts | 234° |
| 2026-04-16 02:55 | 28.55187 | 77.07937 | 776 ft | 4 kts | 235° |
| 2026-04-16 02:55 | 28.55154 | 77.07910 | 776 ft | 9 kts | 198° |
| 2026-04-16 02:56 | 28.55087 | 77.07923 | 776 ft | 8 kts | 130° |
| 2026-04-16 02:56 | 28.55068 | 77.08015 | 776 ft | 18 kts | 100° |
| 2026-04-16 02:56 | 28.55031 | 77.08190 | 776 ft | 26 kts | 104° |
| 2026-04-16 02:56 | 28.54983 | 77.08398 | 776 ft | 28 kts | 105° |
| 2026-04-16 02:57 | 28.54930 | 77.08619 | 776 ft | 30 kts | 104° |
| 2026-04-16 02:57 | 28.54877 | 77.08851 | 776 ft | 31 kts | 105° |
| 2026-04-16 02:57 | 28.54822 | 77.09092 | 776 ft | 32 kts | 105° |
| 2026-04-16 02:57 | 28.54763 | 77.09343 | 776 ft | 33 kts | 105° |
| 2026-04-16 02:58 | 28.54702 | 77.09602 | 776 ft | 35 kts | 104° |
| 2026-04-16 02:58 | 28.54644 | 77.09866 | 776 ft | 35 kts | 105° |
| 2026-04-16 02:58 | 28.54579 | 77.10133 | 776 ft | 36 kts | 105° |
| 2026-04-16 02:58 | 28.54518 | 77.10410 | 776 ft | 34 kts | 104° |
| 2026-04-16 02:59 | 28.54458 | 77.10585 | 776 ft | 14 kts | 150° |
| 2026-04-16 02:59 | 28.54400 | 77.10586 | 776 ft | 10 kts | 192° |
| 2026-04-16 02:59 | 28.54289 | 77.10553 | 776 ft | 22 kts | 196° |
| 2026-04-16 02:59 | 28.54104 | 77.10503 | 776 ft | 32 kts | 193° |
| 2026-04-16 03:00 | 28.53949 | 77.10460 | 776 ft | 21 kts | 198° |
| 2026-04-16 03:00 | 28.53892 | 77.10398 | 775 ft | 11 kts | 251° |
| 2026-04-16 03:00 | 28.53901 | 77.10328 | 775 ft | 12 kts | 291° |
| 2026-04-16 03:00 | 28.53936 | 77.10197 | 775 ft | 23 kts | 285° |
| 2026-04-16 03:01 | 28.53991 | 77.09930 | 777 ft | 62 kts | 284° |
| 2026-04-16 03:01 | 28.54161 | 77.09134 | 776 ft | 144 kts | 283° |
| 2026-04-16 03:01 | 28.54431 | 77.07818 | 1036 ft | 190 kts | 284° |
| 2026-04-16 03:01 | 28.54748 | 77.06282 | 1836 ft | 199 kts | 282° |
| 2026-04-16 03:02 | 28.55035 | 77.04668 | 2556 ft | 224 kts | 281° |
| 2026-04-16 03:02 | 28.55305 | 77.02863 | 3333 ft | 236 kts | 278° |
| 2026-04-16 03:02 | 28.55540 | 77.00935 | 3687 ft | 253 kts | 277° |
| 2026-04-16 03:02 | 28.55823 | 76.98976 | 4080 ft | 257 kts | 288° |
| 2026-04-16 03:03 | 28.56689 | 76.97177 | 4390 ft | 261 kts | 311° |
| 2026-04-16 03:03 | 28.58194 | 76.96121 | 4327 ft | 257 kts | 352° |
| 2026-04-16 03:03 | 28.59938 | 76.96353 | 4564 ft | 255 kts | 15° |
| 2026-04-16 03:03 | 28.61651 | 76.96917 | 5309 ft | 256 kts | 14° |
| 2026-04-16 03:04 | 28.63353 | 76.97312 | 6371 ft | 250 kts | 6° |
| 2026-04-16 03:04 | 28.65137 | 76.97533 | 6723 ft | 261 kts | 2° |
| 2026-04-16 03:04 | 28.66978 | 76.97663 | 6908 ft | 269 kts | 3° |
| 2026-04-16 03:04 | 28.68866 | 76.97882 | 6902 ft | 276 kts | 4° |
| 2026-04-16 03:05 | 28.70796 | 76.98113 | 7376 ft | 279 kts | 4° |
| 2026-04-16 03:05 | 28.72675 | 76.98352 | 8693 ft | 274 kts | 4° |
| 2026-04-16 03:05 | 28.74577 | 76.98599 | 9610 ft | 278 kts | 2° |
| 2026-04-16 03:05 | 28.76527 | 76.98840 | 10257 ft | 286 kts | 2° |
| 2026-04-16 03:06 | 28.78546 | 76.99090 | 11008 ft | 293 kts | 2° |
| 2026-04-16 03:06 | 28.79895 | 76.99257 | 11508 ft | 296 kts | 2° |
| 2026-04-16 03:06 | 28.84110 | 76.99775 | 12862 ft | 317 kts | 2° |
| 2026-04-16 03:07 | 28.86351 | 77.00044 | 13467 ft | 330 kts | 3° |
| 2026-04-16 03:07 | 28.89373 | 76.99885 | 14495 ft | 328 kts | 344° |
| 2026-04-16 03:07 | 28.90886 | 76.99490 | 14980 ft | 333 kts | 345° |
| 2026-04-16 03:07 | 28.93183 | 76.98951 | 15694 ft | 338 kts | 346° |
| 2026-04-16 03:08 | 28.95511 | 76.98423 | 16430 ft | 343 kts | 346° |
| 2026-04-16 03:08 | 28.97846 | 76.97905 | 17121 ft | 349 kts | 346° |
| 2026-04-16 03:08 | 29.00246 | 76.97379 | 17811 ft | 354 kts | 346° |
| 2026-04-16 03:08 | 29.02675 | 76.96849 | 18451 ft | 358 kts | 346° |
| 2026-04-16 03:09 | 29.05139 | 76.96313 | 19061 ft | 362 kts | 346° |
| 2026-04-16 03:09 | 29.07620 | 76.95773 | 19694 ft | 365 kts | 346° |
| 2026-04-16 03:09 | 29.10135 | 76.95226 | 20323 ft | 368 kts | 345° |
| 2026-04-16 03:09 | 29.12665 | 76.94675 | 20915 ft | 371 kts | 345° |
| 2026-04-16 03:10 | 29.15218 | 76.94119 | 21511 ft | 375 kts | 345° |
| 2026-04-16 03:10 | 29.17787 | 76.93560 | 22105 ft | 377 kts | 345° |
| 2026-04-16 03:10 | 29.20367 | 76.92997 | 22772 ft | 379 kts | 345° |
| 2026-04-16 03:10 | 29.22992 | 76.92426 | 23153 ft | 387 kts | 345° |
| 2026-04-16 03:11 | 29.25616 | 76.91853 | 23893 ft | 382 kts | 345° |
| 2026-04-16 03:11 | 29.28227 | 76.91282 | 24096 ft | 395 kts | 345° |
| 2026-04-16 03:11 | 29.30931 | 76.90693 | 24556 ft | 394 kts | 345° |
| 2026-04-16 03:11 | 29.33625 | 76.90103 | 25096 ft | 394 kts | 344° |
| 2026-04-16 03:12 | 29.36324 | 76.89513 | 25642 ft | 394 kts | 344° |
| 2026-04-16 03:12 | 29.39025 | 76.88921 | 26198 ft | 394 kts | 343° |
| 2026-04-16 03:12 | 29.41714 | 76.88333 | 26709 ft | 395 kts | 343° |
| 2026-04-16 03:12 | 29.44398 | 76.87745 | 27130 ft | 398 kts | 343° |
| 2026-04-16 03:13 | 29.47175 | 76.87137 | 27426 ft | 403 kts | 343° |
| 2026-04-16 03:13 | 29.49905 | 76.86539 | 27744 ft | 406 kts | 343° |
| 2026-04-16 03:13 | 29.52679 | 76.85931 | 27883 ft | 407 kts | 343° |
| 2026-04-16 03:13 | 29.55474 | 76.85317 | 27704 ft | 406 kts | 343° |
| 2026-04-16 03:14 | 29.58250 | 76.84708 | 26779 ft | 411 kts | 343° |
| 2026-04-16 03:14 | 29.61148 | 76.84069 | 24709 ft | 443 kts | 345° |
| 2026-04-16 03:14 | 29.64316 | 76.83376 | 22489 ft | 481 kts | 346° |
| 2026-04-16 03:14 | 29.67624 | 76.82656 | 21912 ft | 472 kts | 346° |
| 2026-04-16 03:15 | 29.70678 | 76.81985 | 22939 ft | 426 kts | 345° |
| 2026-04-16 03:15 | 29.73480 | 76.81363 | 23447 ft | 395 kts | 345° |
| 2026-04-16 03:15 | 29.76133 | 76.80772 | 23863 ft | 388 kts | 345° |
| 2026-04-16 03:15 | 29.78793 | 76.80183 | 24294 ft | 390 kts | 344° |
| 2026-04-16 03:16 | 29.81472 | 76.79592 | 24728 ft | 392 kts | 344° |
| 2026-04-16 03:16 | 29.84163 | 76.78997 | 25176 ft | 395 kts | 344° |
| 2026-04-16 03:16 | 29.86864 | 76.78401 | 25632 ft | 397 kts | 344° |
| 2026-04-16 03:16 | 29.89590 | 76.77798 | 26094 ft | 399 kts | 344° |
| 2026-04-16 03:17 | 29.92292 | 76.77201 | 26559 ft | 401 kts | 343° |
| 2026-04-16 03:17 | 29.95042 | 76.76592 | 27040 ft | 403 kts | 343° |
| 2026-04-16 03:17 | 29.97803 | 76.75981 | 27523 ft | 405 kts | 343° |
| 2026-04-16 03:17 | 30.00580 | 76.75366 | 28016 ft | 406 kts | 343° |
| 2026-04-16 03:18 | 30.03360 | 76.74749 | 28504 ft | 407 kts | 343° |
| 2026-04-16 03:18 | 30.06139 | 76.74133 | 28993 ft | 408 kts | 343° |
| 2026-04-16 03:18 | 30.08930 | 76.73514 | 29491 ft | 408 kts | 343° |
| 2026-04-16 03:18 | 30.11724 | 76.72893 | 29973 ft | 409 kts | 343° |
| 2026-04-16 03:19 | 30.14520 | 76.72271 | 30378 ft | 409 kts | 342° |
| 2026-04-16 03:19 | 30.17317 | 76.71649 | 30787 ft | 409 kts | 342° |
| 2026-04-16 03:19 | 30.20113 | 76.71027 | 31207 ft | 409 kts | 342° |
| 2026-04-16 03:19 | 30.22882 | 76.70411 | 31618 ft | 409 kts | 342° |
| 2026-04-16 03:20 | 30.25679 | 76.69788 | 32040 ft | 409 kts | 342° |
| 2026-04-16 03:20 | 30.28470 | 76.69166 | 32460 ft | 408 kts | 341° |
| 2026-04-16 03:20 | 30.31263 | 76.68543 | 32875 ft | 408 kts | 341° |
| 2026-04-16 03:20 | 30.34051 | 76.67921 | 33302 ft | 407 kts | 341° |
| 2026-04-16 03:21 | 30.36832 | 76.67300 | 33716 ft | 407 kts | 341° |
| 2026-04-16 03:21 | 30.39607 | 76.66680 | 34088 ft | 406 kts | 340° |
| 2026-04-16 03:21 | 30.42386 | 76.66060 | 34437 ft | 405 kts | 340° |
| 2026-04-16 03:21 | 30.45120 | 76.65448 | 34768 ft | 404 kts | 340° |
| 2026-04-16 03:22 | 30.47879 | 76.64831 | 35092 ft | 404 kts | 340° |
| 2026-04-16 03:22 | 30.50641 | 76.64212 | 35415 ft | 403 kts | 340° |
| 2026-04-16 03:22 | 30.53397 | 76.63595 | 35712 ft | 403 kts | 340° |
| 2026-04-16 03:22 | 30.56144 | 76.62979 | 35997 ft | 401 kts | 340° |
| 2026-04-16 03:23 | 30.58879 | 76.62366 | 36287 ft | 399 kts | 339° |
| 2026-04-16 03:23 | 30.61606 | 76.61754 | 36548 ft | 398 kts | 339° |
| 2026-04-16 03:23 | 30.64326 | 76.61143 | 36800 ft | 397 kts | 339° |
| 2026-04-16 03:23 | 30.67031 | 76.60535 | 37038 ft | 396 kts | 339° |
| 2026-04-16 03:24 | 30.69741 | 76.59926 | 37267 ft | 396 kts | 339° |
| 2026-04-16 03:24 | 30.72444 | 76.59318 | 37485 ft | 395 kts | 339° |
| 2026-04-16 03:24 | 30.75148 | 76.58710 | 37696 ft | 395 kts | 339° |
| 2026-04-16 03:24 | 30.77847 | 76.58102 | 37904 ft | 395 kts | 339° |
| 2026-04-16 03:25 | 30.80507 | 76.57503 | 38100 ft | 395 kts | 339° |
| 2026-04-16 03:25 | 30.83203 | 76.56895 | 38292 ft | 395 kts | 339° |
| 2026-04-16 03:25 | 30.85898 | 76.56288 | 38477 ft | 395 kts | 338° |
| 2026-04-16 03:25 | 30.88596 | 76.55679 | 38626 ft | 394 kts | 338° |
| 2026-04-16 03:26 | 30.91297 | 76.55069 | 38764 ft | 394 kts | 338° |
| 2026-04-16 03:26 | 30.93994 | 76.54460 | 38895 ft | 394 kts | 338° |
| 2026-04-16 03:26 | 30.96685 | 76.53852 | 39019 ft | 394 kts | 338° |
| 2026-04-16 03:26 | 30.99379 | 76.53242 | 39137 ft | 394 kts | 338° |
| 2026-04-16 03:27 | 31.02075 | 76.52632 | 39241 ft | 394 kts | 338° |
| 2026-04-16 03:27 | 31.04767 | 76.52022 | 39362 ft | 395 kts | 338° |
| 2026-04-16 03:27 | 31.07469 | 76.51411 | 39460 ft | 395 kts | 338° |
| 2026-04-16 03:28 | 31.12862 | 76.50187 | 39651 ft | 395 kts | 338° |
| 2026-04-16 03:28 | 31.18233 | 76.48968 | 39823 ft | 395 kts | 338° |
| 2026-04-16 03:29 | 31.23644 | 76.47738 | 39983 ft | 396 kts | 338° |
| 2026-04-16 03:29 | 31.29058 | 76.46506 | 40133 ft | 396 kts | 338° |
| 2026-04-16 03:30 | 31.34477 | 76.45272 | 40269 ft | 397 kts | 338° |
| 2026-04-16 03:30 | 31.39901 | 76.44035 | 40399 ft | 398 kts | 338° |
| 2026-04-16 03:31 | 31.45344 | 76.42792 | 40474 ft | 398 kts | 338° |
| 2026-04-16 03:31 | 31.50781 | 76.41549 | 40560 ft | 398 kts | 338° |
| 2026-04-16 03:32 | 31.56201 | 76.40308 | 40660 ft | 399 kts | 338° |
| 2026-04-16 03:34 | 31.78057 | 76.35290 | 40996 ft | 401 kts | 338° |
| 2026-04-16 03:34 | 31.83540 | 76.34027 | 41081 ft | 401 kts | 338° |
| 2026-04-16 03:35 | 31.88987 | 76.32772 | 41194 ft | 402 kts | 339° |
| 2026-04-16 03:35 | 31.94495 | 76.31500 | 41256 ft | 402 kts | 339° |
| 2026-04-16 03:36 | 31.99998 | 76.30228 | 41329 ft | 403 kts | 339° |
| 2026-04-16 03:36 | 32.05474 | 76.28961 | 41392 ft | 403 kts | 339° |
| 2026-04-16 03:37 | 32.10984 | 76.27684 | 41446 ft | 404 kts | 339° |
| 2026-04-16 03:37 | 32.16181 | 76.25706 | 41436 ft | 378 kts | 316° |
| 2026-04-16 03:37 | 32.18148 | 76.23745 | 41434 ft | 367 kts | 308° |
| 2026-04-16 03:38 | 32.19963 | 76.21622 | 41455 ft | 366 kts | 306° |
| 2026-04-16 03:38 | 32.23400 | 76.17211 | 41501 ft | 364 kts | 304° |
| 2026-04-16 03:39 | 32.26731 | 76.12695 | 41538 ft | 364 kts | 303° |
| 2026-04-16 03:39 | 32.30023 | 76.08150 | 41604 ft | 364 kts | 303° |
| 2026-04-16 03:40 | 32.33290 | 76.03614 | 41595 ft | 367 kts | 303° |
| 2026-04-16 03:40 | 32.34963 | 76.01284 | 41390 ft | 374 kts | 304° |
| 2026-04-16 03:40 | 32.36657 | 75.98927 | 40982 ft | 379 kts | 303° |
| 2026-04-16 03:40 | 32.38367 | 75.96549 | 40569 ft | 380 kts | 303° |
| 2026-04-16 03:41 | 32.40085 | 75.94156 | 40089 ft | 380 kts | 303° |
| 2026-04-16 03:41 | 32.41804 | 75.91758 | 39351 ft | 384 kts | 304° |
| 2026-04-16 03:41 | 32.43543 | 75.89332 | 38711 ft | 386 kts | 304° |
| 2026-04-16 03:41 | 32.45279 | 75.86909 | 38020 ft | 387 kts | 304° |
| 2026-04-16 03:42 | 32.47023 | 75.84473 | 37339 ft | 387 kts | 304° |
| 2026-04-16 03:42 | 32.48759 | 75.82046 | 36715 ft | 387 kts | 304° |
| 2026-04-16 03:42 | 32.50497 | 75.79615 | 36110 ft | 386 kts | 304° |
| 2026-04-16 03:42 | 32.52205 | 75.77223 | 35542 ft | 385 kts | 304° |
| 2026-04-16 03:43 | 32.53938 | 75.74796 | 34996 ft | 388 kts | 304° |
| 2026-04-16 03:43 | 32.55687 | 75.72345 | 34486 ft | 390 kts | 304° |
| 2026-04-16 03:43 | 32.57446 | 75.69879 | 33999 ft | 392 kts | 304° |
| 2026-04-16 03:43 | 32.59215 | 75.67394 | 33490 ft | 395 kts | 304° |
| 2026-04-16 03:44 | 32.60999 | 75.64890 | 32998 ft | 398 kts | 304° |
| 2026-04-16 03:44 | 32.62786 | 75.62378 | 32543 ft | 401 kts | 304° |
| 2026-04-16 03:44 | 32.64592 | 75.59839 | 32077 ft | 403 kts | 304° |
| 2026-04-16 03:44 | 32.66400 | 75.57295 | 31673 ft | 405 kts | 304° |
| 2026-04-16 03:45 | 32.68224 | 75.54727 | 31208 ft | 409 kts | 304° |
| 2026-04-16 03:45 | 32.70067 | 75.52131 | 30850 ft | 414 kts | 304° |
| 2026-04-16 03:45 | 32.71980 | 75.49555 | 30502 ft | 420 kts | 311° |
| 2026-04-16 03:45 | 32.74422 | 75.47539 | 30127 ft | 436 kts | 327° |
| 2026-04-16 03:46 | 32.77342 | 75.46368 | 29739 ft | 450 kts | 339° |
| 2026-04-16 03:46 | 32.80366 | 75.45416 | 29386 ft | 450 kts | 338° |
| 2026-04-16 03:46 | 32.83399 | 75.44440 | 29056 ft | 451 kts | 338° |
| 2026-04-16 03:46 | 32.86394 | 75.43487 | 28764 ft | 453 kts | 338° |
| 2026-04-16 03:47 | 32.89446 | 75.42521 | 28464 ft | 453 kts | 338° |
| 2026-04-16 03:47 | 32.92494 | 75.41554 | 28164 ft | 454 kts | 339° |
| 2026-04-16 03:47 | 32.95556 | 75.40583 | 27872 ft | 455 kts | 339° |
| 2026-04-16 03:47 | 32.98623 | 75.39610 | 27619 ft | 456 kts | 339° |
| 2026-04-16 03:48 | 33.01694 | 75.38635 | 27389 ft | 457 kts | 339° |
| 2026-04-16 03:48 | 33.04770 | 75.37658 | 27155 ft | 458 kts | 339° |
| 2026-04-16 03:48 | 33.07839 | 75.36683 | 26961 ft | 452 kts | 339° |
| 2026-04-16 03:48 | 33.10854 | 75.35723 | 27010 ft | 446 kts | 339° |
| 2026-04-16 03:49 | 33.13844 | 75.34771 | 26920 ft | 442 kts | 339° |
| 2026-04-16 03:49 | 33.16801 | 75.33830 | 26508 ft | 435 kts | 339° |
| 2026-04-16 03:49 | 33.19700 | 75.32905 | 26107 ft | 428 kts | 339° |
| 2026-04-16 03:49 | 33.22562 | 75.31992 | 25693 ft | 422 kts | 339° |
| 2026-04-16 03:50 | 33.25376 | 75.31093 | 25293 ft | 416 kts | 339° |
| 2026-04-16 03:50 | 33.28117 | 75.30218 | 24882 ft | 412 kts | 339° |
| 2026-04-16 03:50 | 33.30877 | 75.29336 | 24469 ft | 407 kts | 340° |
| 2026-04-16 03:50 | 33.33596 | 75.28466 | 24074 ft | 402 kts | 340° |
| 2026-04-16 03:51 | 33.36220 | 75.27626 | 23687 ft | 398 kts | 340° |
| 2026-04-16 03:51 | 33.38882 | 75.26773 | 23228 ft | 394 kts | 340° |
| 2026-04-16 03:51 | 33.41485 | 75.25939 | 22755 ft | 386 kts | 340° |
| 2026-04-16 03:51 | 33.44029 | 75.25123 | 22338 ft | 371 kts | 340° |
| 2026-04-16 03:52 | 33.46482 | 75.24336 | 21910 ft | 359 kts | 340° |
| 2026-04-16 03:52 | 33.48865 | 75.23570 | 21475 ft | 350 kts | 340° |
| 2026-04-16 03:52 | 33.51058 | 75.22469 | 21002 ft | 335 kts | 323° |
| 2026-04-16 03:52 | 33.53017 | 75.20953 | 20588 ft | 336 kts | 324° |
| 2026-04-16 03:53 | 33.55008 | 75.19492 | 20159 ft | 336 kts | 325° |
| 2026-04-16 03:53 | 33.57003 | 75.18025 | 19723 ft | 334 kts | 325° |
| 2026-04-16 03:53 | 33.58984 | 75.16566 | 19309 ft | 333 kts | 325° |
| 2026-04-16 03:53 | 33.60954 | 75.15114 | 18899 ft | 331 kts | 326° |
| 2026-04-16 03:54 | 33.62906 | 75.13673 | 18490 ft | 330 kts | 326° |
| 2026-04-16 03:54 | 33.64864 | 75.12228 | 17862 ft | 331 kts | 326° |
| 2026-04-16 03:54 | 33.66816 | 75.10786 | 17198 ft | 329 kts | 326° |
| 2026-04-16 03:54 | 33.68758 | 75.09351 | 16520 ft | 326 kts | 327° |
| 2026-04-16 03:55 | 33.70031 | 75.08409 | 16080 ft | 325 kts | 327° |
| 2026-04-16 03:55 | 33.71949 | 75.06990 | 15418 ft | 322 kts | 327° |
| 2026-04-16 03:55 | 33.74465 | 75.05127 | 14565 ft | 320 kts | 327° |
| 2026-04-16 03:55 | 33.75678 | 75.04063 | 14119 ft | 318 kts | 316° |
| 2026-04-16 03:56 | 33.77232 | 75.02183 | 13403 ft | 317 kts | 314° |
| 2026-04-16 03:56 | 33.78796 | 75.00296 | 12600 ft | 319 kts | 315° |
| 2026-04-16 03:56 | 33.80369 | 74.98418 | 11823 ft | 320 kts | 315° |
| 2026-04-16 03:56 | 33.81974 | 74.96573 | 11071 ft | 320 kts | 317° |
| 2026-04-16 03:57 | 33.83577 | 74.94787 | 10540 ft | 313 kts | 317° |
| 2026-04-16 03:57 | 33.85171 | 74.93009 | 9997 ft | 307 kts | 317° |
| 2026-04-16 03:57 | 33.86654 | 74.91323 | 10038 ft | 278 kts | 316° |
| 2026-04-16 03:57 | 33.87977 | 74.89815 | 9797 ft | 252 kts | 317° |
| 2026-04-16 03:58 | 33.89267 | 74.88374 | 8935 ft | 253 kts | 317° |
| 2026-04-16 03:58 | 33.90549 | 74.86960 | 8076 ft | 254 kts | 317° |
| 2026-04-16 03:58 | 33.91804 | 74.85542 | 7673 ft | 237 kts | 316° |
| 2026-04-16 03:58 | 33.92977 | 74.84185 | 7120 ft | 228 kts | 316° |
| 2026-04-16 03:59 | 33.94026 | 74.82912 | 6830 ft | 204 kts | 314° |
| 2026-04-16 03:59 | 33.94967 | 74.81706 | 6343 ft | 189 kts | 313° |
| 2026-04-16 03:59 | 33.95846 | 74.80626 | 5990 ft | 173 kts | 317° |
| 2026-04-16 03:59 | 33.96702 | 74.79699 | 5666 ft | 161 kts | 319° |
| 2026-04-16 04:00 | 33.97489 | 74.78809 | 5466 ft | 147 kts | 316° |
| 2026-04-16 04:00 | 33.98120 | 74.78068 | 5459 ft | 97 kts | 315° |
| 2026-04-16 04:00 | 33.98499 | 74.77627 | 5457 ft | 62 kts | 316° |
| 2026-04-16 04:00 | 33.98746 | 74.77344 | 5457 ft | 48 kts | 316° |
| 2026-04-16 04:01 | 33.98929 | 74.77125 | 5455 ft | 37 kts | 316° |
| 2026-04-16 04:01 | 33.99144 | 74.76878 | 5454 ft | 49 kts | 314° |
| 2026-04-16 04:01 | 33.99418 | 74.76558 | 5459 ft | 59 kts | 317° |
| 2026-04-16 04:01 | 33.99655 | 74.76281 | 5457 ft | 34 kts | 316° |
| 2026-04-16 04:02 | 33.99815 | 74.76137 | 5454 ft | 22 kts | 356° |
| 2026-04-16 04:02 | 33.99952 | 74.76168 | 5456 ft | 16 kts | 14° |
| 2026-04-16 04:02 | 34.00038 | 74.76189 | 5457 ft | 9 kts | 6° |
| 2026-04-16 04:02 | 34.00077 | 74.76197 | 5458 ft | 3 kts | 10° |
| 2026-04-16 04:03 | 34.00084 | 74.76198 | 5459 ft | 0 kts | 12° |